Time;durP1;ratioP1;P1;durP2;ratioP2;P2;SDS_P1;SDS_P2;PMS_P1;PMS_P2;Temp;Humidity;BMP_temperature;BMP_pressure;BME280_temperature;BME280_humidity;BME280_pressure;Samples;Min_cycle;Max_cycle;Signal;HPM_P1;HPM_P2
2023/12/16 00:02:25;;;;;;;9.30;3.17;;;7.00;99.90;;;;;;4938571;28;20235;-68
2023/12/16 00:04:53;;;;;;;13.90;2.90;;;7.00;99.90;;;;;;4929631;28;20708;-68
2023/12/16 00:07:20;;;;;;;11.47;2.67;;;7.00;99.90;;;;;;4929159;28;20254;-69
2023/12/16 00:09:47;;;;;;;11.90;3.50;;;7.10;99.90;;;;;;4897394;28;20223;-68
2023/12/16 00:12:14;;;;;;;10.70;3.23;;;7.10;99.90;;;;;;4941781;28;20234;-68
2023/12/16 00:14:41;;;;;;;9.23;3.57;;;7.10;99.90;;;;;;4916712;28;21031;-68
2023/12/16 00:17:08;;;;;;;12.73;3.20;;;5.90;99.90;;;;;;4933793;28;20204;-68
2023/12/16 00:19:34;;;;;;;10.07;2.60;;;7.40;99.90;;;;;;4930713;28;20698;-68
2023/12/16 00:22:03;;;;;;;8.40;2.57;;;7.10;99.90;;;;;;4929463;28;20231;-68
2023/12/16 00:24:29;;;;;;;13.90;3.10;;;7.00;99.90;;;;;;4899268;28;20795;-68
2023/12/16 00:26:56;;;;;;;11.07;3.17;;;7.00;99.90;;;;;;4929082;28;20262;-68
2023/12/16 00:29:23;;;;;;;12.10;3.67;;;7.00;99.90;;;;;;4927982;28;20208;-69
2023/12/16 00:31:50;;;;;;;17.97;3.27;;;;;;;;;;4930263;28;20228;-68
2023/12/16 00:34:17;;;;;;;7.30;2.70;;;7.00;99.90;;;;;;4930508;28;20208;-68
2023/12/16 00:36:44;;;;;;;8.63;3.23;;;7.10;99.90;;;;;;4929686;28;20997;-68
2023/12/16 00:39:12;;;;;;;16.37;2.90;;;7.10;99.90;;;;;;4938667;28;20203;-68
2023/12/16 00:41:39;;;;;;;9.53;3.03;;;7.10;99.90;;;;;;4897068;28;21006;-69
2023/12/16 00:44:06;;;;;;;14.67;3.10;;;7.10;99.90;;;;;;4936075;28;20215;-69
2023/12/16 00:46:34;;;;;;;13.70;3.23;;;;;;;;;;4930866;28;20258;-69
2023/12/16 00:49:00;;;;;;;6.37;2.83;;;7.10;99.90;;;;;;4939084;28;20228;-68
2023/12/16 00:51:27;;;;;;;11.23;3.00;;;7.10;99.90;;;;;;4930101;28;20231;-68
2023/12/16 00:53:54;;;;;;;12.13;2.80;;;7.10;99.90;;;;;;4934183;28;20328;-68
2023/12/16 00:56:22;;;;;;;8.43;2.70;;;7.10;99.90;;;;;;4903246;28;20209;-68
2023/12/16 00:58:49;;;;;;;13.50;2.97;;;7.10;99.90;;;;;;4929166;28;21254;-68
2023/12/16 01:01:16;;;;;;;13.43;2.90;;;7.10;99.90;;;;;;4928147;28;20323;-68
2023/12/16 01:03:46;;;;;;;7.80;2.50;;;7.10;99.90;;;;;;4940075;28;20210;-68
2023/12/16 01:06:12;;;;;;;10.90;3.00;;;7.80;99.90;;;;;;4934619;28;20208;-68
2023/12/16 01:08:39;;;;;;;16.50;2.80;;;7.10;99.90;;;;;;4923247;28;20205;-68
2023/12/16 01:11:06;;;;;;;7.83;2.90;;;7.20;99.90;;;;;;4941751;28;20231;-68
2023/12/16 01:13:35;;;;;;;22.97;3.40;;;7.10;99.90;;;;;;4892705;28;20282;-68
2023/12/16 01:16:02;;;;;;;10.73;2.70;;;7.20;99.90;;;;;;4940016;28;20244;-68
2023/12/16 01:18:29;;;;;;;11.07;3.33;;;;;;;;;;4928648;28;20286;-68
2023/12/16 01:20:56;;;;;;;9.30;3.10;;;7.20;99.90;;;;;;4933072;28;20354;-68
2023/12/16 01:23:23;;;;;;;14.60;2.60;;;7.10;99.90;;;;;;4930951;28;20242;-68
2023/12/16 01:25:50;;;;;;;16.90;3.30;;;7.10;99.90;;;;;;4936416;28;20207;-68
2023/12/16 01:28:17;;;;;;;9.40;2.97;;;7.20;99.90;;;;;;4898458;28;20212;-69
2023/12/16 01:30:45;;;;;;;9.63;3.03;;;7.10;99.90;;;;;;4928984;28;20210;-68
2023/12/16 01:33:12;;;;;;;15.13;2.90;;;7.10;99.90;;;;;;4926415;28;20201;-69
2023/12/16 01:35:39;;;;;;;9.37;2.80;;;7.10;99.90;;;;;;4937877;28;20236;-68
2023/12/16 01:38:06;;;;;;;9.10;2.77;;;7.20;99.90;;;;;;4930842;28;20307;-68
2023/12/16 01:40:33;;;;;;;11.37;3.20;;;7.10;99.90;;;;;;4933803;28;20206;-68
2023/12/16 01:43:04;;;;;;;12.33;2.40;;;7.10;99.90;;;;;;4899630;28;20205;-69
2023/12/16 01:45:31;;;;;;;12.00;2.87;;;7.10;99.90;;;;;;4924019;28;20227;-68
2023/12/16 01:48:02;;;;;;;7.47;2.67;;;7.20;99.90;;;;;;4925788;28;20234;-68
2023/12/16 01:50:29;;;;;;;7.13;2.37;;;5.40;99.90;;;;;;4928183;28;20391;-68
2023/12/16 01:52:57;;;;;;;9.17;2.90;;;7.10;99.90;;;;;;4929916;28;20239;-68
2023/12/16 01:55:25;;;;;;;5.22;2.30;;;7.10;99.90;;;;;;4928567;28;20209;-68
2023/12/16 01:57:52;;;;;;;6.67;3.10;;;7.40;99.90;;;;;;4901993;28;20720;-69
2023/12/16 02:00:20;;;;;;;6.33;3.07;;;7.10;99.90;;;;;;4920611;28;20205;-68
2023/12/16 02:02:47;;;;;;;7.43;2.57;;;7.10;99.90;;;;;;4929118;28;20232;-68
2023/12/16 02:05:16;;;;;;;10.93;3.67;;;7.20;99.90;;;;;;4933753;28;20221;-68
2023/12/16 02:07:46;;;;;;;13.90;2.73;;;7.10;99.90;;;;;;4930516;28;20222;-68
2023/12/16 02:10:13;;;;;;;8.17;3.43;;;7.00;99.90;;;;;;4929187;28;20542;-68
2023/12/16 02:12:40;;;;;;;14.87;2.83;;;7.10;99.90;;;;;;4930967;28;20293;-68
2023/12/16 02:15:08;;;;;;;6.30;2.77;;;7.10;99.90;;;;;;4897020;28;20323;-68
2023/12/16 02:17:35;;;;;;;9.20;2.80;;;7.10;99.90;;;;;;4931054;28;24327;-68
2023/12/16 02:20:03;;;;;;;9.47;3.20;;;7.10;99.90;;;;;;4932455;28;20209;-69
2023/12/16 02:22:31;;;;;;;14.87;3.23;;;7.10;99.90;;;;;;4937200;28;20211;-68
2023/12/16 02:25:01;;;;;;;7.63;2.60;;;7.10;99.90;;;;;;4929420;28;20227;-68
2023/12/16 02:27:28;;;;;;;11.90;3.33;;;7.10;99.90;;;;;;4922906;28;20362;-68
2023/12/16 02:29:55;;;;;;;7.73;2.50;;;7.10;99.90;;;;;;4903353;28;20209;-68
2023/12/16 02:32:22;;;;;;;9.33;2.90;;;5.50;99.90;;;;;;4916681;28;20232;-68
2023/12/16 02:34:49;;;;;;;10.07;2.33;;;7.10;99.90;;;;;;4927399;28;20239;-68
2023/12/16 02:37:16;;;;;;;8.40;2.57;;;7.10;99.90;;;;;;4928808;28;20323;-68
2023/12/16 02:39:43;;;;;;;6.73;2.47;;;7.20;99.90;;;;;;4933310;28;20228;-68
2023/12/16 02:42:11;;;;;;;8.30;2.63;;;7.10;99.90;;;;;;4929946;28;20203;-68
2023/12/16 02:44:38;;;;;;;8.60;2.83;;;7.10;99.90;;;;;;4897485;28;20205;-68
2023/12/16 02:47:05;;;;;;;10.70;2.80;;;7.10;99.90;;;;;;4927320;28;20204;-68
2023/12/16 02:49:32;;;;;;;3.90;2.30;;;7.10;99.90;;;;;;4927016;28;20253;-68
2023/12/16 02:51:59;;;;;;;5.50;2.13;;;7.10;99.90;;;;;;4935585;28;20234;-68
2023/12/16 02:54:27;;;;;;;5.30;2.63;;;7.10;99.90;;;;;;4920541;28;21647;-68
2023/12/16 02:56:53;;;;;;;11.03;2.70;;;7.10;99.90;;;;;;4923249;28;20295;-68
2023/12/16 02:59:22;;;;;;;9.77;2.73;;;7.10;99.90;;;;;;4900080;28;20685;-68
2023/12/16 03:01:48;;;;;;;7.63;1.97;;;7.10;99.90;;;;;;4932603;28;20234;-68
2023/12/16 03:04:15;;;;;;;8.00;2.20;;;7.10;99.90;;;;;;4917860;28;20304;-68
2023/12/16 03:06:43;;;;;;;11.57;2.80;;;7.10;99.90;;;;;;4933378;28;20208;-68
2023/12/16 03:09:10;;;;;;;11.20;2.77;;;7.00;99.90;;;;;;4932412;28;20378;-68
2023/12/16 03:11:37;;;;;;;7.73;2.43;;;;;;;;;;4927817;28;20322;-68
2023/12/16 03:14:05;;;;;;;6.77;2.43;;;7.00;99.90;;;;;;4933867;28;20314;-68
2023/12/16 03:16:33;;;;;;;4.30;2.27;;;7.00;99.90;;;;;;4899905;28;20209;-68
2023/12/16 03:19:00;;;;;;;4.63;2.00;;;7.00;99.90;;;;;;4926214;28;20209;-68
2023/12/16 03:21:27;;;;;;;8.07;2.50;;;6.90;99.90;;;;;;4923158;28;21706;-68
2023/12/16 03:23:54;;;;;;;6.93;2.20;;;7.00;99.90;;;;;;4924240;28;20692;-68
2023/12/16 03:26:21;;;;;;;4.10;1.53;;;6.90;99.90;;;;;;4933093;28;20295;-68
2023/12/16 03:28:48;;;;;;;7.00;2.27;;;6.90;99.90;;;;;;4925084;28;20208;-68
2023/12/16 03:31:15;;;;;;;12.17;2.43;;;6.90;99.90;;;;;;4896563;28;23247;-68
2023/12/16 03:33:43;;;;;;;4.00;1.90;;;6.80;99.90;;;;;;4924711;28;20295;-68
2023/12/16 03:36:10;;;;;;;5.03;2.10;;;6.80;99.90;;;;;;4927038;28;20713;-68
2023/12/16 03:38:37;;;;;;;9.57;2.17;;;6.80;99.90;;;;;;4937239;28;20239;-68
2023/12/16 03:41:05;;;;;;;5.17;1.73;;;6.80;99.90;;;;;;4929665;28;20263;-68
2023/12/16 03:43:32;;;;;;;12.77;2.33;;;6.80;99.90;;;;;;4929169;28;20208;-68
2023/12/16 03:45:59;;;;;;;7.00;2.13;;;6.80;99.90;;;;;;4901508;28;20308;-69
2023/12/16 03:48:26;;;;;;;6.70;1.90;;;6.80;99.90;;;;;;4936072;28;20207;-68
2023/12/16 03:50:54;;;;;;;5.17;2.03;;;6.80;99.90;;;;;;4919022;28;20204;-68
2023/12/16 03:53:22;;;;;;;7.40;2.77;;;6.80;99.90;;;;;;4934407;28;20224;-68
2023/12/16 03:55:49;;;;;;;6.87;1.93;;;6.70;99.90;;;;;;4928704;28;20872;-68
2023/12/16 03:58:15;;;;;;;8.10;2.30;;;6.70;99.90;;;;;;4927400;28;20207;-68
2023/12/16 04:00:42;;;;;;;5.00;1.87;;;6.80;99.90;;;;;;4936433;28;20786;-68
2023/12/16 04:03:10;;;;;;;8.93;2.80;;;;;;;;;;4899831;28;20208;-68
2023/12/16 04:05:37;;;;;;;8.13;2.60;;;6.70;99.90;;;;;;4918495;28;20208;-68
2023/12/16 04:08:05;;;;;;;7.23;2.37;;;6.70;99.90;;;;;;4932093;28;20217;-68
2023/12/16 04:10:32;;;;;;;7.30;2.47;;;6.70;99.90;;;;;;4929949;28;20303;-68
2023/12/16 04:12:59;;;;;;;11.40;2.47;;;6.70;99.90;;;;;;4939869;28;20721;-68
2023/12/16 04:15:26;;;;;;;10.07;3.13;;;6.70;99.90;;;;;;4925845;28;20250;-68
2023/12/16 04:17:53;;;;;;;6.20;2.13;;;6.60;99.90;;;;;;4907920;28;20207;-68
2023/12/16 04:20:20;;;;;;;4.23;2.07;;;6.60;99.90;;;;;;4929231;28;20204;-68
2023/12/16 04:22:47;;;;;;;10.77;2.17;;;6.60;99.90;;;;;;4919673;28;20213;-68
2023/12/16 04:25:15;;;;;;;6.27;2.03;;;5.50;99.90;;;;;;4933983;28;20304;-68
2023/12/16 04:27:42;;;;;;;7.03;2.10;;;6.60;99.90;;;;;;4938645;28;20212;-68
2023/12/16 04:30:10;;;;;;;5.50;1.70;;;6.60;99.90;;;;;;4931120;28;20219;-68
2023/12/16 04:32:37;;;;;;;7.03;2.37;;;6.60;99.90;;;;;;4902621;28;28920;-68
2023/12/16 04:35:05;;;;;;;4.47;1.87;;;6.60;99.90;;;;;;4938686;28;20230;-68
2023/12/16 04:37:32;;;;;;;3.47;1.43;;;6.50;99.90;;;;;;4918928;28;20212;-68
2023/12/16 04:39:59;;;;;;;5.27;1.97;;;;;;;;;;4930594;28;20215;-68
2023/12/16 04:42:27;;;;;;;7.73;2.30;;;6.50;99.90;;;;;;4937967;28;20209;-68
2023/12/16 04:44:54;;;;;;;9.57;1.80;;;6.70;99.90;;;;;;4932018;28;20202;-68
2023/12/16 04:47:21;;;;;;;6.07;1.90;;;6.50;99.90;;;;;;4929595;28;20200;-68
2023/12/16 04:49:48;;;;;;;6.10;2.00;;;;;;;;;;4906491;28;20213;-68
2023/12/16 04:52:17;;;;;;;3.63;1.93;;;6.50;99.90;;;;;;4919905;28;23041;-68
2023/12/16 04:54:44;;;;;;;8.90;2.30;;;6.40;99.90;;;;;;4928653;28;20231;-68
2023/12/16 04:57:11;;;;;;;4.13;1.87;;;6.50;99.90;;;;;;4918390;28;20208;-68
2023/12/16 04:59:39;;;;;;;7.10;2.20;;;6.50;99.90;;;;;;4939885;28;20201;-68
2023/12/16 05:02:06;;;;;;;5.47;2.23;;;6.40;99.90;;;;;;4922426;28;20235;-68
2023/12/16 05:04:33;;;;;;;3.77;1.40;;;6.40;99.90;;;;;;4902468;28;20219;-68
2023/12/16 05:07:00;;;;;;;6.20;2.10;;;6.40;99.90;;;;;;4934443;28;20296;-68
2023/12/16 05:09:27;;;;;;;8.37;2.70;;;6.40;99.90;;;;;;4919853;28;20208;-68
2023/12/16 05:11:53;;;;;;;4.30;1.83;;;6.40;99.90;;;;;;4938723;28;20206;-68
2023/12/16 05:14:20;;;;;;;6.67;2.20;;;6.40;99.90;;;;;;4929150;28;20224;-68
2023/12/16 05:16:49;;;;;;;8.43;2.20;;;6.30;99.90;;;;;;4930520;28;21058;-68
2023/12/16 05:19:15;;;;;;;9.53;2.57;;;4.30;99.90;;;;;;4891230;28;20279;-68
2023/12/16 05:21:42;;;;;;;14.87;2.60;;;7.30;99.90;;;;;;4931560;28;20198;-68
2023/12/16 05:24:09;;;;;;;6.67;2.03;;;6.40;99.90;;;;;;4919871;28;20204;-68
2023/12/16 05:26:36;;;;;;;9.93;3.07;;;6.40;99.90;;;;;;4927493;28;20222;-68
2023/12/16 05:29:03;;;;;;;7.67;2.60;;;6.40;99.90;;;;;;4929066;28;20206;-68
2023/12/16 05:31:30;;;;;;;11.90;3.10;;;6.20;99.90;;;;;;4934592;28;20201;-68
2023/12/16 05:33:58;;;;;;;6.50;3.07;;;6.40;99.90;;;;;;4929931;28;20249;-68
2023/12/16 05:36:25;;;;;;;6.47;3.07;;;6.40;99.90;;;;;;4904981;28;20346;-68
2023/12/16 05:38:52;;;;;;;10.87;3.23;;;6.40;99.90;;;;;;4909861;28;20234;-68
2023/12/16 05:41:18;;;;;;;12.03;3.30;;;6.40;99.90;;;;;;4918633;28;21757;-68
2023/12/16 05:43:45;;;;;;;5.87;2.60;;;6.40;99.90;;;;;;4928976;28;20218;-68
2023/12/16 05:46:12;;;;;;;6.57;2.63;;;6.40;99.90;;;;;;4929516;28;20208;-68
2023/12/16 05:48:39;;;;;;;8.17;2.63;;;7.00;99.90;;;;;;4925622;28;20303;-68
2023/12/16 05:51:07;;;;;;;7.40;2.90;;;6.50;99.90;;;;;;4903015;28;20245;-68
2023/12/16 05:53:35;;;;;;;8.93;2.53;;;5.90;99.90;;;;;;4927213;28;20238;-68
2023/12/16 05:56:04;;;;;;;4.43;2.40;;;6.50;99.90;;;;;;4927947;28;20204;-68
2023/12/16 05:58:31;;;;;;;8.03;2.57;;;6.60;99.90;;;;;;4926522;28;20196;-68
2023/12/16 06:00:58;;;;;;;9.70;2.60;;;6.50;99.90;;;;;;4932473;28;20201;-68
2023/12/16 06:03:26;;;;;;;7.90;2.37;;;6.60;99.90;;;;;;4921844;28;20205;-68
2023/12/16 06:05:52;;;;;;;8.00;2.40;;;6.60;99.90;;;;;;4926796;28;20209;-68
2023/12/16 06:08:21;;;;;;;10.57;2.90;;;6.60;99.90;;;;;;4892169;28;20286;-68
2023/12/16 06:10:48;;;;;;;5.33;2.87;;;6.60;99.90;;;;;;4924291;28;20205;-68
2023/12/16 06:13:14;;;;;;;12.50;2.47;;;6.50;99.90;;;;;;4916998;28;20236;-68
2023/12/16 06:15:41;;;;;;;4.50;2.87;;;6.60;99.90;;;;;;4936970;28;20233;-68
2023/12/16 06:18:08;;;;;;;14.63;3.23;;;6.60;99.90;;;;;;4932679;28;20211;-68
2023/12/16 06:20:35;;;;;;;7.30;2.67;;;6.50;99.90;;;;;;4924744;28;21541;-68
2023/12/16 06:23:02;;;;;;;11.53;2.10;;;6.60;99.90;;;;;;4900708;28;20208;-68
2023/12/16 06:25:30;;;;;;;11.67;3.00;;;6.60;99.90;;;;;;4928786;28;20761;-68
2023/12/16 06:27:57;;;;;;;4.07;2.13;;;6.60;99.90;;;;;;4930416;28;20205;-68
2023/12/16 06:30:24;;;;;;;9.33;2.10;;;6.60;99.90;;;;;;4929540;28;20693;-68
2023/12/16 06:32:51;;;;;;;16.47;2.87;;;6.90;99.90;;;;;;4934626;28;20228;-68
2023/12/16 06:35:17;;;;;;;7.17;2.00;;;6.60;99.90;;;;;;4929440;28;20700;-68
2023/12/16 06:37:44;;;;;;;5.53;2.27;;;6.70;99.90;;;;;;4904791;28;20212;-68
2023/12/16 06:40:11;;;;;;;12.47;2.63;;;6.70;99.90;;;;;;4926727;28;20212;-68
2023/12/16 06:42:40;;;;;;;5.77;2.53;;;6.70;99.90;;;;;;4933328;28;20214;-68
2023/12/16 06:45:08;;;;;;;7.77;2.07;;;6.70;99.90;;;;;;4916164;28;20217;-68
2023/12/16 06:47:37;;;;;;;7.37;2.17;;;;;;;;;;4937070;28;20204;-68
2023/12/16 06:50:04;;;;;;;12.87;2.20;;;6.80;99.90;;;;;;4919295;28;20694;-68
2023/12/16 06:52:31;;;;;;;7.60;2.10;;;9.10;99.90;;;;;;4927164;28;25089;-68
2023/12/16 06:54:58;;;;;;;7.37;1.90;;;7.10;99.90;;;;;;4908876;28;20235;-68
2023/12/16 06:57:25;;;;;;;6.03;2.40;;;7.20;99.90;;;;;;4937625;28;20200;-68
2023/12/16 06:59:53;;;;;;;10.43;2.57;;;6.90;99.90;;;;;;4920652;28;20222;-68
2023/12/16 07:02:21;;;;;;;7.90;2.53;;;6.80;99.90;;;;;;4932459;28;20216;-68
2023/12/16 07:04:48;;;;;;;9.10;2.13;;;7.10;99.90;;;;;;4930767;28;20205;-68
2023/12/16 07:07:14;;;;;;;9.37;2.43;;;6.80;99.90;;;;;;4932045;28;20204;-68
2023/12/16 07:09:41;;;;;;;6.97;3.10;;;6.80;99.90;;;;;;4899667;28;20215;-68
2023/12/16 07:12:08;;;;;;;12.83;2.70;;;6.80;99.90;;;;;;4931669;28;20208;-68
2023/12/16 07:14:35;;;;;;;12.03;2.43;;;6.80;99.90;;;;;;4930772;28;20828;-68
2023/12/16 07:17:04;;;;;;;4.40;2.00;;;6.90;99.90;;;;;;4922055;28;20294;-68
2023/12/16 07:19:34;;;;;;;8.93;2.40;;;6.90;99.90;;;;;;4929749;28;20988;-68
2023/12/16 07:22:01;;;;;;;8.33;2.50;;;6.40;99.90;;;;;;4921457;28;20367;-68
2023/12/16 07:24:28;;;;;;;4.60;2.13;;;;;;;;;;4922408;28;20211;-68
2023/12/16 07:26:55;;;;;;;14.13;3.23;;;6.90;99.90;;;;;;4889223;28;21094;-68
2023/12/16 07:29:22;;;;;;;11.60;2.47;;;6.90;99.90;;;;;;4937723;28;20200;-68
2023/12/16 07:31:49;;;;;;;6.30;2.30;;;6.80;99.90;;;;;;4923031;28;20218;-68
2023/12/16 07:34:18;;;;;;;7.53;2.80;;;6.80;99.90;;;;;;4937516;28;20224;-68
2023/12/16 07:36:45;;;;;;;12.50;2.93;;;7.10;99.90;;;;;;4924593;28;20200;-68
2023/12/16 07:39:12;;;;;;;8.20;2.63;;;6.90;99.90;;;;;;4930260;28;20262;-68
2023/12/16 07:41:38;;;;;;;10.07;2.77;;;6.90;99.90;;;;;;4896232;28;20355;-68
2023/12/16 07:44:06;;;;;;;11.97;3.07;;;6.90;99.90;;;;;;4927449;28;20212;-68
2023/12/16 07:46:32;;;;;;;11.13;2.50;;;6.90;99.90;;;;;;4932285;28;20752;-68
2023/12/16 07:48:59;;;;;;;15.10;2.60;;;6.90;99.90;;;;;;4932910;28;20209;-68
2023/12/16 07:51:28;;;;;;;11.77;3.57;;;6.90;99.90;;;;;;4940111;28;20199;-68
2023/12/16 07:53:55;;;;;;;5.93;3.07;;;6.90;99.90;;;;;;4927962;28;20232;-68
2023/12/16 07:56:23;;;;;;;9.27;2.77;;;6.90;99.90;;;;;;4901289;28;20216;-68
2023/12/16 07:58:51;;;;;;;11.53;2.73;;;7.00;99.90;;;;;;4925929;28;20196;-68
2023/12/16 08:01:19;;;;;;;9.83;2.80;;;6.80;99.90;;;;;;4927754;28;20526;-68
2023/12/16 08:03:46;;;;;;;12.00;3.23;;;6.80;99.90;;;;;;4912227;28;20220;-68
2023/12/16 08:06:16;;;;;;;14.23;3.33;;;7.00;99.90;;;;;;4932927;28;20567;-68
2023/12/16 08:08:45;;;;;;;7.53;2.70;;;7.00;99.90;;;;;;4915281;28;20243;-68
2023/12/16 08:11:12;;;;;;;17.33;3.47;;;7.00;99.90;;;;;;4926925;28;20400;-68
2023/12/16 08:13:39;;;;;;;10.27;2.90;;;7.00;99.90;;;;;;4901195;28;20238;-67
2023/12/16 08:16:08;;;;;;;11.97;3.60;;;7.10;99.90;;;;;;4923965;28;21046;-68
2023/12/16 08:18:35;;;;;;;4.90;2.60;;;7.00;99.90;;;;;;4932454;28;21056;-68
2023/12/16 08:21:02;;;;;;;12.23;3.67;;;7.00;99.90;;;;;;4937103;28;20928;-68
2023/12/16 08:23:29;;;;;;;7.87;3.10;;;7.00;99.90;;;;;;4933405;28;20222;-68
2023/12/16 08:25:57;;;;;;;15.67;3.93;;;7.00;99.90;;;;;;4928695;28;21096;-68
2023/12/16 08:28:24;;;;;;;11.43;3.63;;;7.10;99.90;;;;;;4904680;28;20212;-68
2023/12/16 08:30:52;;;;;;;9.70;3.30;;;7.00;99.90;;;;;;4919916;28;20250;-68
2023/12/16 08:33:19;;;;;;;6.80;3.17;;;7.10;99.90;;;;;;4933473;28;20239;-68
2023/12/16 08:35:46;;;;;;;11.20;4.03;;;7.10;99.90;;;;;;4944265;28;20196;-68
2023/12/16 08:38:13;;;;;;;12.20;3.60;;;7.10;99.90;;;;;;4932029;28;20303;-68
2023/12/16 08:40:40;;;;;;;11.90;3.57;;;7.10;99.90;;;;;;4927938;28;20678;-68
2023/12/16 08:43:08;;;;;;;17.87;3.63;;;6.90;99.90;;;;;;4902979;28;20853;-68
2023/12/16 08:45:35;;;;;;;12.47;3.70;;;7.10;99.90;;;;;;4924261;28;20674;-68
2023/12/16 08:48:03;;;;;;;8.07;3.53;;;7.10;99.90;;;;;;4929878;28;20251;-68
2023/12/16 08:50:30;;;;;;;14.67;3.67;;;7.10;99.90;;;;;;4918408;28;20249;-68
2023/12/16 08:52:57;;;;;;;12.17;3.53;;;7.10;99.90;;;;;;4919821;28;20331;-68
2023/12/16 08:55:26;;;;;;;14.70;4.33;;;7.10;99.90;;;;;;4922657;28;20259;-68
2023/12/16 08:57:53;;;;;;;15.57;3.83;;;7.20;99.90;;;;;;4943004;28;20228;-68
2023/12/16 09:00:21;;;;;;;17.40;4.40;;;7.30;99.90;;;;;;4884563;28;20783;-68
2023/12/16 09:02:48;;;;;;;8.73;3.27;;;7.10;99.90;;;;;;4918114;28;20608;-68
2023/12/16 09:05:18;;;;;;;13.47;3.73;;;7.30;99.90;;;;;;4909584;28;21643;-68
2023/12/16 09:07:45;;;;;;;14.07;4.00;;;7.10;99.90;;;;;;4921415;28;20600;-67
2023/12/16 09:10:13;;;;;;;18.40;4.33;;;7.10;99.90;;;;;;4895925;28;20698;-68
2023/12/16 09:12:39;;;;;;;14.87;4.83;;;8.60;99.90;;;;;;4926016;28;20210;-68
2023/12/16 09:15:08;;;;;;;8.70;3.83;;;7.20;99.90;;;;;;4866713;28;20244;-68
2023/12/16 09:17:36;;;;;;;13.23;4.63;;;7.20;99.90;;;;;;4923889;28;22986;-68
2023/12/16 09:20:03;;;;;;;16.13;3.73;;;;;;;;;;4911677;28;20228;-68
2023/12/16 09:22:30;;;;;;;14.87;4.53;;;7.20;99.90;;;;;;4902091;28;20233;-68
2023/12/16 09:24:57;;;;;;;14.57;4.83;;;7.40;99.90;;;;;;4903948;28;20224;-68
2023/12/16 09:27:24;;;;;;;12.93;4.13;;;7.20;99.90;;;;;;4931185;28;20717;-68
2023/12/16 09:29:51;;;;;;;14.60;4.43;;;7.20;99.90;;;;;;4898872;28;20235;-68
2023/12/16 09:32:18;;;;;;;25.37;4.47;;;6.30;99.90;;;;;;4913036;28;20221;-68
2023/12/16 09:34:46;;;;;;;19.03;4.20;;;7.20;99.90;;;;;;4926671;28;20232;-68
2023/12/16 09:37:14;;;;;;;14.93;4.30;;;7.50;99.90;;;;;;4909226;28;21467;-68
2023/12/16 09:39:41;;;;;;;15.93;4.13;;;7.20;99.90;;;;;;4908366;28;20213;-68
2023/12/16 09:42:08;;;;;;;16.23;4.17;;;7.20;99.90;;;;;;4914628;28;20208;-68
2023/12/16 09:44:37;;;;;;;17.90;4.17;;;7.20;99.90;;;;;;4889845;28;20232;-68
2023/12/16 09:47:05;;;;;;;9.63;4.20;;;7.20;99.90;;;;;;4916040;28;20697;-68
2023/12/16 09:49:32;;;;;;;16.47;4.57;;;7.20;99.90;;;;;;4919148;28;20226;-68
2023/12/16 09:52:01;;;;;;;14.40;4.60;;;7.30;99.90;;;;;;4914308;28;20591;-68
2023/12/16 09:54:28;;;;;;;13.00;4.77;;;7.20;99.90;;;;;;4898858;28;20355;-68
2023/12/16 09:56:57;;;;;;;23.53;6.03;;;7.30;99.90;;;;;;4916836;28;20221;-68
2023/12/16 09:59:26;;;;;;;15.47;5.70;;;7.30;99.90;;;;;;4928763;28;24473;-68
2023/12/16 10:01:54;;;;;;;15.13;6.10;;;7.30;99.90;;;;;;4883313;28;20208;-68
2023/12/16 10:04:23;;;;;;;19.60;6.03;;;7.30;99.90;;;;;;4929817;28;20224;-68
2023/12/16 10:06:49;;;;;;;14.10;5.63;;;7.30;99.90;;;;;;4918921;28;20933;-68
2023/12/16 10:09:18;;;;;;;17.33;6.40;;;7.30;99.90;;;;;;4916352;28;20265;-68
2023/12/16 10:11:50;;;;;;;17.50;6.03;;;6.90;99.90;;;;;;4927844;28;20603;-68
2023/12/16 10:14:17;;;;;;;19.90;5.67;;;7.50;99.90;;;;;;4921849;28;20236;-68
2023/12/16 10:16:47;;;;;;;14.67;6.40;;;7.40;99.90;;;;;;4890222;28;20235;-68
2023/12/16 10:19:14;;;;;;;22.73;5.70;;;7.40;99.90;;;;;;4915851;28;20235;-68
2023/12/16 10:21:41;;;;;;;16.93;5.40;;;7.40;99.90;;;;;;4905919;28;22516;-68
2023/12/16 10:24:09;;;;;;;22.27;5.40;;;6.10;99.90;;;;;;4911799;28;20239;-68
2023/12/16 10:26:43;;;;;;;11.23;5.10;;;7.80;99.90;;;;;;4919198;28;21119;-68
2023/12/16 10:29:11;;;;;;;18.57;5.53;;;7.60;99.90;;;;;;4918065;28;20227;-68
2023/12/16 10:31:39;;;;;;;13.03;5.03;;;7.60;99.90;;;;;;4881269;28;20805;-68
2023/12/16 10:34:06;;;;;;;11.83;5.40;;;7.70;99.90;;;;;;4929062;28;20240;-68
2023/12/16 10:36:32;;;;;;;19.50;5.53;;;7.70;99.90;;;;;;4933814;28;20227;-68
2023/12/16 10:39:00;;;;;;;17.77;5.87;;;7.70;99.90;;;;;;4918495;28;20514;-68
2023/12/16 10:41:26;;;;;;;10.83;5.77;;;7.70;99.90;;;;;;4932860;28;20201;-68
2023/12/16 10:43:55;;;;;;;17.33;5.87;;;7.60;99.90;;;;;;4930973;28;20204;-68
2023/12/16 10:46:25;;;;;;;15.37;6.27;;;7.80;99.90;;;;;;4896795;28;20216;-68
2023/12/16 10:48:58;;;;;;;19.80;6.83;;;7.80;99.90;;;;;;4925940;28;20211;-68
2023/12/16 10:51:26;;;;;;;17.17;6.53;;;7.60;99.90;;;;;;4936104;28;20649;-68
2023/12/16 10:54:02;;;;;;;15.73;7.53;;;7.50;99.90;;;;;;4916506;28;20405;-68
2023/12/16 10:56:30;;;;;;;13.27;6.40;;;7.50;99.90;;;;;;4925808;28;20295;-68
2023/12/16 10:59:04;;;;;;;17.50;7.10;;;7.60;99.90;;;;;;4936629;28;20327;-68
2023/12/16 11:01:38;;;;;;;16.40;7.00;;;7.60;99.90;;;;;;4931942;28;20689;-68
2023/12/16 11:04:10;;;;;;;20.40;7.03;;;7.60;99.90;;;;;;4890426;28;20251;-68
2023/12/16 11:06:50;;;;;;;17.70;6.17;;;7.50;99.90;;;;;;4938693;28;20193;-68
2023/12/16 11:09:18;;;;;;;21.00;7.57;;;7.20;99.90;;;;;;4917563;28;20450;-68
2023/12/16 11:11:46;;;;;;;17.10;7.50;;;7.30;99.90;;;;;;4935451;28;20849;-68
2023/12/16 11:14:16;;;;;;;18.10;6.80;;;7.70;99.90;;;;;;4936222;28;20235;-68
2023/12/16 11:16:55;;;;;;;20.67;7.53;;;7.70;99.90;;;;;;4936467;28;20227;-68
2023/12/16 11:19:26;;;;;;;23.03;8.07;;;7.70;99.90;;;;;;4898093;28;20215;-68
2023/12/16 11:21:53;;;;;;;15.43;6.83;;;7.70;99.90;;;;;;4935425;28;20193;-68
2023/12/16 11:24:20;;;;;;;18.17;7.37;;;7.70;99.90;;;;;;4920367;28;20223;-68
2023/12/16 11:26:51;;;;;;;17.73;7.27;;;7.70;99.90;;;;;;4927804;28;20233;-68
2023/12/16 11:29:22;;;;;;;21.83;6.70;;;7.70;99.90;;;;;;4926538;28;20200;-68
2023/12/16 11:31:52;;;;;;;15.27;6.50;;;8.10;99.90;;;;;;4900540;28;20277;-68
2023/12/16 11:34:44;;;;;;;10.60;6.23;;;7.90;99.90;;;;;;4873905;28;20961;-68
2023/12/16 11:37:11;;;;;;;18.97;7.03;;;8.10;99.90;;;;;;4922898;28;20316;-70
2023/12/16 11:39:40;;;;;;;16.63;6.33;;;8.90;99.90;;;;;;4920586;28;20230;-70
2023/12/16 11:42:08;;;;;;;10.73;6.50;;;7.90;99.90;;;;;;4915736;28;20240;-70
2023/12/16 11:44:50;;;;;;;20.13;6.20;;;7.90;99.90;;;;;;4915308;28;20238;-69
2023/12/16 11:47:25;;;;;;;19.10;6.77;;;7.90;99.90;;;;;;4928360;28;20223;-70
2023/12/16 11:49:52;;;;;;;10.43;6.03;;;8.00;99.90;;;;;;4892131;28;20235;-70
2023/12/16 11:52:21;;;;;;;22.33;7.20;;;7.80;99.90;;;;;;4905972;28;20228;-69
2023/12/16 11:54:52;;;;;;;12.10;6.78;;;7.70;99.90;;;;;;4916529;28;20235;-70
2023/12/16 11:57:20;;;;;;;17.13;7.13;;;7.80;99.90;;;;;;4918420;28;21106;-69
2023/12/16 11:59:49;;;;;;;26.20;7.50;;;7.80;99.90;;;;;;4914475;28;20220;-69
2023/12/16 12:02:16;;;;;;;13.27;6.73;;;7.80;99.90;;;;;;4936527;28;20207;-69
2023/12/16 12:04:43;;;;;;;17.35;7.15;;;7.80;99.90;;;;;;4888361;28;20232;-69
2023/12/16 12:07:11;;;;;;;11.63;6.03;;;7.80;99.90;;;;;;4911146;28;20334;-69
2023/12/16 12:09:40;;;;;;;16.07;6.27;;;7.80;99.90;;;;;;4916618;28;20209;-69
2023/12/16 12:12:07;;;;;;;15.87;6.60;;;7.80;99.90;;;;;;4915426;28;20231;-69
2023/12/16 12:14:37;;;;;;;12.23;6.67;;;7.70;99.90;;;;;;4913104;28;20240;-69
2023/12/16 12:17:06;;;;;;;11.90;5.83;;;7.70;99.90;;;;;;4928692;28;21130;-69
2023/12/16 12:19:33;;;;;;;16.97;6.50;;;7.70;99.90;;;;;;4907039;28;20307;-70
2023/12/16 12:22:00;;;;;;;15.00;7.13;;;7.70;99.90;;;;;;4917262;28;20228;-69
2023/12/16 12:24:27;;;;;;;17.80;7.00;;;7.80;99.90;;;;;;4931884;28;20232;-69
2023/12/16 12:26:54;;;;;;;18.58;6.88;;;7.00;99.90;;;;;;4925769;28;20271;-69
2023/12/16 12:29:21;;;;;;;15.93;6.53;;;7.80;99.90;;;;;;4926804;28;20213;-69
2023/12/16 12:31:48;;;;;;;19.10;7.13;;;7.80;99.90;;;;;;4936481;28;20256;-69
2023/12/16 12:34:20;;;;;;;18.07;7.90;;;7.80;99.90;;;;;;4931844;28;20295;-68
2023/12/16 12:36:48;;;;;;;22.03;6.40;;;7.70;99.90;;;;;;4904276;28;20254;-69
2023/12/16 12:39:16;;;;;;;25.30;7.35;;;7.80;99.90;;;;;;4921564;28;20679;-69
2023/12/16 12:41:43;;;;;;;19.73;6.80;;;7.80;99.90;;;;;;4934273;28;21104;-69
2023/12/16 12:44:11;;;;;;;21.33;7.07;;;7.70;99.90;;;;;;4931306;28;21196;-69
2023/12/16 12:46:46;;;;;;;15.97;6.30;;;7.70;99.90;;;;;;4919870;28;20575;-69
2023/12/16 12:49:13;;;;;;;16.70;6.78;;;7.80;99.90;;;;;;4942003;28;20210;-69
2023/12/16 12:51:52;;;;;;;17.10;6.77;;;7.80;99.90;;;;;;4898973;28;20212;-69
2023/12/16 12:54:20;;;;;;;14.57;7.10;;;7.80;99.90;;;;;;4923758;28;20213;-69
2023/12/16 12:56:48;;;;;;;15.60;7.40;;;8.20;99.90;;;;;;4935922;28;20993;-69
2023/12/16 12:59:15;;;;;;;14.67;6.80;;;7.80;99.90;;;;;;4925272;28;20788;-69